aviador You're here:

KSLB Decoded Metar

STORM LAKE in IA, USA
Report Time2017-09-21 13:35:00
UTC Time2017-09-21 13:51:11
Flight Rules vfr VFR
Wind100° at 09 kt
W.Decomp.*RWY 13: 7.5 kt HW 5 kt LCW
RWY 06: 7.3 kt HW 5.3 kt RCW
RWY 17: 2.5 kt HW 8.7 kt LCW
W.Rank100° ranks 35
Current wind is above 100° avg. (8.5)
Visibility9999 m
Phenomena:N/A
Clouds:Few 008 Hf
Expected CloudBase > 1,200 ft AGL from Temp-Dew spread
CeilingNone
Temp16°C (ISA +4)
Dew Point13°C (83% RH)
AAT13.7°C
QNH1013 hPa
Density Alt2,162 ft
Elevation1,490 ft
Report Wrong Elevation
Raw Report
KSLB 211335Z AUTO 10009KT 10SM FEW008 16/13 A2991 RMK AO2=

Extra information for KSLB:More info

Metar Taf Metar & Taf Last 4 Metars F.Rules Stats Wind Profile Meteogram Temp Stats Airport Information Weather charts Add Link Nearby VenuesMetar ALERT Operation Metar Decoded Social comments

AIRNAV info for KSLB